KAKQ/AKQ METAR and TAF weather

Enter ICAO airport designator
Station Type Date Time Source
KAKQ METAR 2019/12/07 09:54 UTC NOAA

KAKQ 070954Z AUTO 01004KT 10SM CLR 06/02 A3026 RMK AO2 SLP248 T00610022


Station Type Date Time Source
KAKQ Decoded METAR 2019/12/07 09:54 UTC NOAA

WAKEFIELD MUNICIPAL AIRPOR, VA, United States (KAKQ) 36-59N 077-00W 33M
Dec 07, 2019 - 04:54 AM EST / 2019.12.07 0954 UTC
Wind: from the N (010 degrees) at 5 MPH (4 KT):0
Visibility: 10 mile(s):0
Sky conditions: clear
Temperature: 43.0 F (6.1 C)
Dew Point: 36.0 F (2.2 C)
Relative Humidity: 76%
Pressure (altimeter): 30.26 in. Hg (1024 hPa)
ob: KAKQ 070954Z AUTO 01004KT 10SM CLR 06/02 A3026 RMK AO2 SLP248 T00610022
cycle: 10

Station Type Date Time Source
KAKQ TAF UTC NOAA

Error!

Example: see airport list